Redhill, United Kingdom
Current Conditions -  °F | °C
As of 1:20 PM on Thursday 27 Nov 2014 (Local Time) from EGKK Reporting Station
Broken Clouds Broken Clouds  
Wind Chill: 50°   Ceiling: 1800
Heat Index: 50°   Visibility: 6mi
Dew Point: 48°   Wind: 3mph
Humidity: 94%   Direction: NA
Pressure: 29.59"   Gusts: NA
Location:  51.24°N, 0.17°W
Report Text: EGKK 271320Z VRB03KT 9999 BKN018 10/09 Q1002
Loading
Personal Weather Stations






























Interactive Weather Map New forecast layout! Learn more

10-Day Weather Forecast

Advertisements
Track Severe Weather on mobile